sensor_id;sensor_type;location;lat;lon;timestamp;temperature;humidity
7792;DHT22;3940;49.892;10.886;2022-08-11T00:00:54;21.30;94.10
7792;DHT22;3940;49.892;10.886;2022-08-11T00:03:43;21.20;94.40
7792;DHT22;3940;49.892;10.886;2022-08-11T00:06:35;21.30;94.70
7792;DHT22;3940;49.892;10.886;2022-08-11T00:09:31;21.20;96.40
7792;DHT22;3940;49.892;10.886;2022-08-11T00:12:16;21.20;95.70
7792;DHT22;3940;49.892;10.886;2022-08-11T00:15:01;21.30;95.70
7792;DHT22;3940;49.892;10.886;2022-08-11T00:17:46;21.20;95.30
7792;DHT22;3940;49.892;10.886;2022-08-11T00:20:32;21.10;98.00
7792;DHT22;3940;49.892;10.886;2022-08-11T00:23:18;21.10;98.70
7792;DHT22;3940;49.892;10.886;2022-08-11T00:26:05;21.10;96.10
7792;DHT22;3940;49.892;10.886;2022-08-11T00:28:50;21.10;97.30
7792;DHT22;3940;49.892;10.886;2022-08-11T00:31:36;21.10;98.80
7792;DHT22;3940;49.892;10.886;2022-08-11T00:34:27;21.00;96.50
7792;DHT22;3940;49.892;10.886;2022-08-11T00:37:18;21.00;97.30
7792;DHT22;3940;49.892;10.886;2022-08-11T00:40:07;21.00;96.70
7792;DHT22;3940;49.892;10.886;2022-08-11T00:43:06;20.80;96.30
7792;DHT22;3940;49.892;10.886;2022-08-11T00:46:10;20.80;96.60
7792;DHT22;3940;49.892;10.886;2022-08-11T00:49:10;20.80;97.50
7792;DHT22;3940;49.892;10.886;2022-08-11T00:52:12;20.80;97.80
7792;DHT22;3940;49.892;10.886;2022-08-11T00:55:25;20.80;98.70
7792;DHT22;3940;49.892;10.886;2022-08-11T00:58:29;20.70;99.90
7792;DHT22;3940;49.892;10.886;2022-08-11T01:01:47;20.60;99.60
7792;DHT22;3940;49.892;10.886;2022-08-11T01:11:19;20.50;99.90
7792;DHT22;3940;49.892;10.886;2022-08-11T01:14:26;20.50;99.90
7792;DHT22;3940;49.892;10.886;2022-08-11T01:17:46;20.40;99.90
7792;DHT22;3940;49.892;10.886;2022-08-11T01:24:24;20.30;99.90
7792;DHT22;3940;49.892;10.886;2022-08-11T01:40:40;20.10;99.20
7792;DHT22;3940;49.892;10.886;2022-08-11T01:50:56;20.20;99.90
7792;DHT22;3940;49.892;10.886;2022-08-11T01:53:53;20.20;99.90
7792;DHT22;3940;49.892;10.886;2022-08-11T02:00:01;20.10;99.90
7792;DHT22;3940;49.892;10.886;2022-08-11T02:06:14;20.00;99.90
7792;DHT22;3940;49.892;10.886;2022-08-11T02:09:32;20.00;99.90
7792;DHT22;3940;49.892;10.886;2022-08-11T02:12:43;19.90;99.90
7792;DHT22;3940;49.892;10.886;2022-08-11T02:15:49;20.00;99.90
7792;DHT22;3940;49.892;10.886;2022-08-11T02:18:37;20.00;99.90
7792;DHT22;3940;49.892;10.886;2022-08-11T02:21:50;19.90;99.90
7792;DHT22;3940;49.892;10.886;2022-08-11T02:24:59;20.00;99.90
7792;DHT22;3940;49.892;10.886;2022-08-11T02:27:52;19.90;99.90
7792;DHT22;3940;49.892;10.886;2022-08-11T02:30:52;19.90;99.90
7792;DHT22;3940;49.892;10.886;2022-08-11T02:34:17;19.90;99.90
7792;DHT22;3940;49.892;10.886;2022-08-11T02:37:27;19.70;99.90
7792;DHT22;3940;49.892;10.886;2022-08-11T02:40:33;19.70;99.90
7792;DHT22;3940;49.892;10.886;2022-08-11T02:43:51;19.50;99.90
7792;DHT22;3940;49.892;10.886;2022-08-11T02:49:46;19.50;99.90
7792;DHT22;3940;49.892;10.886;2022-08-11T02:53:03;19.50;99.90
7792;DHT22;3940;49.892;10.886;2022-08-11T02:56:01;19.40;99.90
7792;DHT22;3940;49.892;10.886;2022-08-11T02:59:05;19.30;99.90
7792;DHT22;3940;49.892;10.886;2022-08-11T03:05:26;19.30;99.90
7792;DHT22;3940;49.892;10.886;2022-08-11T03:08:24;19.20;99.90
7792;DHT22;3940;49.892;10.886;2022-08-11T03:11:30;19.20;99.90
7792;DHT22;3940;49.892;10.886;2022-08-11T03:14:48;19.20;99.90
7792;DHT22;3940;49.892;10.886;2022-08-11T03:21:28;19.30;99.90
7792;DHT22;3940;49.892;10.886;2022-08-11T03:27:46;19.20;99.90
7792;DHT22;3940;49.892;10.886;2022-08-11T03:30:42;19.20;99.90
7792;DHT22;3940;49.892;10.886;2022-08-11T03:33:34;19.20;99.90
7792;DHT22;3940;49.892;10.886;2022-08-11T03:36:54;19.20;99.90
7792;DHT22;3940;49.892;10.886;2022-08-11T03:39:58;19.10;99.90
7792;DHT22;3940;49.892;10.886;2022-08-11T03:43:01;19.20;99.90
7792;DHT22;3940;49.892;10.886;2022-08-11T03:49:08;19.20;99.90
7792;DHT22;3940;49.892;10.886;2022-08-11T03:55:26;19.20;99.90
7792;DHT22;3940;49.892;10.886;2022-08-11T03:58:39;19.10;99.90
7792;DHT22;3940;49.892;10.886;2022-08-11T04:01:48;19.10;99.90
7792;DHT22;3940;49.892;10.886;2022-08-11T04:05:17;19.10;99.90
7792;DHT22;3940;49.892;10.886;2022-08-11T04:08:19;19.10;99.90
7792;DHT22;3940;49.892;10.886;2022-08-11T04:17:58;18.90;99.90
7792;DHT22;3940;49.892;10.886;2022-08-11T04:24:17;19.00;99.90
7792;DHT22;3940;49.892;10.886;2022-08-11T04:27:33;19.00;99.90
7792;DHT22;3940;49.892;10.886;2022-08-11T04:33:52;19.10;99.90
7792;DHT22;3940;49.892;10.886;2022-08-11T04:37:09;19.10;99.90
7792;DHT22;3940;49.892;10.886;2022-08-11T04:40:38;19.10;99.90
7792;DHT22;3940;49.892;10.886;2022-08-11T04:43:57;19.10;99.90
7792;DHT22;3940;49.892;10.886;2022-08-11T04:53:49;19.10;99.90
7792;DHT22;3940;49.892;10.886;2022-08-11T04:56:50;19.20;99.90
7792;DHT22;3940;49.892;10.886;2022-08-11T05:00:05;19.20;99.90
7792;DHT22;3940;49.892;10.886;2022-08-11T05:06:56;19.10;99.90
7792;DHT22;3940;49.892;10.886;2022-08-11T05:10:05;19.20;99.90
7792;DHT22;3940;49.892;10.886;2022-08-11T05:16:14;19.30;99.90
7792;DHT22;3940;49.892;10.886;2022-08-11T05:19:16;19.30;99.90
7792;DHT22;3940;49.892;10.886;2022-08-11T05:22:24;19.30;99.90
7792;DHT22;3940;49.892;10.886;2022-08-11T05:25:31;19.40;99.90
7792;DHT22;3940;49.892;10.886;2022-08-11T05:28:41;19.40;99.90
7792;DHT22;3940;49.892;10.886;2022-08-11T05:31:45;19.50;99.90
7792;DHT22;3940;49.892;10.886;2022-08-11T05:34:46;19.50;99.90
7792;DHT22;3940;49.892;10.886;2022-08-11T05:37:41;19.60;99.90
7792;DHT22;3940;49.892;10.886;2022-08-11T05:40:49;19.70;99.90
7792;DHT22;3940;49.892;10.886;2022-08-11T05:43:54;19.70;99.90
7792;DHT22;3940;49.892;10.886;2022-08-11T05:46:54;19.80;99.90
7792;DHT22;3940;49.892;10.886;2022-08-11T05:49:52;19.90;99.90
7792;DHT22;3940;49.892;10.886;2022-08-11T05:52:52;20.00;99.90
7792;DHT22;3940;49.892;10.886;2022-08-11T05:55:54;20.10;99.90
7792;DHT22;3940;49.892;10.886;2022-08-11T05:58:54;20.20;99.90
7792;DHT22;3940;49.892;10.886;2022-08-11T06:01:41;20.20;99.90
7792;DHT22;3940;49.892;10.886;2022-08-11T06:04:27;20.20;99.90
7792;DHT22;3940;49.892;10.886;2022-08-11T06:07:12;20.40;99.90
7792;DHT22;3940;49.892;10.886;2022-08-11T06:10:01;20.50;99.90
7792;DHT22;3940;49.892;10.886;2022-08-11T06:12:52;20.50;99.90
7792;DHT22;3940;49.892;10.886;2022-08-11T06:15:48;20.60;99.90
7792;DHT22;3940;49.892;10.886;2022-08-11T06:18:33;20.70;99.90
7792;DHT22;3940;49.892;10.886;2022-08-11T06:21:20;20.80;99.90
7792;DHT22;3940;49.892;10.886;2022-08-11T06:24:11;20.90;99.90
7792;DHT22;3940;49.892;10.886;2022-08-11T06:26:56;20.90;99.90
7792;DHT22;3940;49.892;10.886;2022-08-11T06:29:49;21.00;99.90
7792;DHT22;3940;49.892;10.886;2022-08-11T06:32:35;21.00;99.90
7792;DHT22;3940;49.892;10.886;2022-08-11T06:35:24;21.00;99.90
7792;DHT22;3940;49.892;10.886;2022-08-11T06:41:20;21.20;99.90
7792;DHT22;3940;49.892;10.886;2022-08-11T06:44:25;21.30;99.90
7792;DHT22;3940;49.892;10.886;2022-08-11T06:47:12;21.40;99.90
7792;DHT22;3940;49.892;10.886;2022-08-11T06:50:00;21.40;99.90
7792;DHT22;3940;49.892;10.886;2022-08-11T06:52:58;21.50;99.90
7792;DHT22;3940;49.892;10.886;2022-08-11T06:55:45;21.50;99.90
7792;DHT22;3940;49.892;10.886;2022-08-11T06:58:49;21.60;99.90
7792;DHT22;3940;49.892;10.886;2022-08-11T07:05:04;21.70;99.90
7792;DHT22;3940;49.892;10.886;2022-08-11T07:08:09;21.70;99.90
7792;DHT22;3940;49.892;10.886;2022-08-11T07:11:35;21.80;99.90
7792;DHT22;3940;49.892;10.886;2022-08-11T07:14:54;22.00;99.90
7792;DHT22;3940;49.892;10.886;2022-08-11T07:17:51;22.10;99.90
7792;DHT22;3940;49.892;10.886;2022-08-11T07:20:48;22.20;99.90
7792;DHT22;3940;49.892;10.886;2022-08-11T07:23:47;22.20;99.90
7792;DHT22;3940;49.892;10.886;2022-08-11T07:26:52;22.30;99.90
7792;DHT22;3940;49.892;10.886;2022-08-11T07:29:51;22.50;99.90
7792;DHT22;3940;49.892;10.886;2022-08-11T07:32:46;22.60;99.90
7792;DHT22;3940;49.892;10.886;2022-08-11T07:35:41;22.60;99.90
7792;DHT22;3940;49.892;10.886;2022-08-11T07:38:33;22.80;99.90
7792;DHT22;3940;49.892;10.886;2022-08-11T07:41:28;22.90;99.90
7792;DHT22;3940;49.892;10.886;2022-08-11T07:44:17;23.00;99.90
7792;DHT22;3940;49.892;10.886;2022-08-11T07:47:02;23.10;99.90
7792;DHT22;3940;49.892;10.886;2022-08-11T07:50:02;23.20;99.90
7792;DHT22;3940;49.892;10.886;2022-08-11T07:53:03;23.40;99.00
7792;DHT22;3940;49.892;10.886;2022-08-11T07:55:48;23.40;99.80
7792;DHT22;3940;49.892;10.886;2022-08-11T07:58:35;23.60;99.50
7792;DHT22;3940;49.892;10.886;2022-08-11T08:01:41;23.80;97.70
7792;DHT22;3940;49.892;10.886;2022-08-11T08:04:44;23.90;94.40
7792;DHT22;3940;49.892;10.886;2022-08-11T08:07:43;24.10;93.60
7792;DHT22;3940;49.892;10.886;2022-08-11T08:10:43;24.20;92.10
7792;DHT22;3940;49.892;10.886;2022-08-11T08:13:41;24.10;92.10
7792;DHT22;3940;49.892;10.886;2022-08-11T08:16:40;24.30;91.10
7792;DHT22;3940;49.892;10.886;2022-08-11T08:19:46;24.40;91.70
7792;DHT22;3940;49.892;10.886;2022-08-11T08:22:31;24.40;91.00
7792;DHT22;3940;49.892;10.886;2022-08-11T08:25:17;24.50;91.10
7792;DHT22;3940;49.892;10.886;2022-08-11T08:28:06;24.60;90.60
7792;DHT22;3940;49.892;10.886;2022-08-11T08:30:51;24.70;90.00
7792;DHT22;3940;49.892;10.886;2022-08-11T08:33:57;24.70;87.40
7792;DHT22;3940;49.892;10.886;2022-08-11T08:36:47;24.60;83.50
7792;DHT22;3940;49.892;10.886;2022-08-11T08:39:35;24.60;87.40
7792;DHT22;3940;49.892;10.886;2022-08-11T08:42:27;24.80;83.10
7792;DHT22;3940;49.892;10.886;2022-08-11T08:45:13;24.80;83.10
7792;DHT22;3940;49.892;10.886;2022-08-11T08:48:04;24.90;84.10
7792;DHT22;3940;49.892;10.886;2022-08-11T08:50:55;25.00;82.30
7792;DHT22;3940;49.892;10.886;2022-08-11T08:54:08;24.90;79.80
7792;DHT22;3940;49.892;10.886;2022-08-11T08:56:55;25.10;82.30
7792;DHT22;3940;49.892;10.886;2022-08-11T08:59:48;25.20;78.50
7792;DHT22;3940;49.892;10.886;2022-08-11T09:02:34;25.20;80.30
7792;DHT22;3940;49.892;10.886;2022-08-11T09:05:22;25.10;77.30
7792;DHT22;3940;49.892;10.886;2022-08-11T09:08:21;25.30;77.10
7792;DHT22;3940;49.892;10.886;2022-08-11T09:11:06;25.20;79.30
7792;DHT22;3940;49.892;10.886;2022-08-11T09:14:13;25.10;77.30
7792;DHT22;3940;49.892;10.886;2022-08-11T09:16:58;25.20;75.90
7792;DHT22;3940;49.892;10.886;2022-08-11T09:19:44;25.10;73.00
7792;DHT22;3940;49.892;10.886;2022-08-11T09:22:37;25.30;72.90
7792;DHT22;3940;49.892;10.886;2022-08-11T09:25:38;25.40;70.70
7792;DHT22;3940;49.892;10.886;2022-08-11T09:28:42;25.60;72.70
7792;DHT22;3940;49.892;10.886;2022-08-11T09:31:31;25.80;73.30
7792;DHT22;3940;49.892;10.886;2022-08-11T09:34:17;25.90;72.40
7792;DHT22;3940;49.892;10.886;2022-08-11T09:37:04;26.00;77.70
7792;DHT22;3940;49.892;10.886;2022-08-11T09:40:10;26.10;70.60
7792;DHT22;3940;49.892;10.886;2022-08-11T09:43:09;26.00;71.40
7792;DHT22;3940;49.892;10.886;2022-08-11T09:46:22;26.10;72.30
7792;DHT22;3940;49.892;10.886;2022-08-11T09:49:07;26.20;65.90
7792;DHT22;3940;49.892;10.886;2022-08-11T09:51:53;26.10;64.40
7792;DHT22;3940;49.892;10.886;2022-08-11T09:54:38;26.20;63.70
7792;DHT22;3940;49.892;10.886;2022-08-11T09:57:47;26.40;64.50
7792;DHT22;3940;49.892;10.886;2022-08-11T10:00:51;26.70;63.40
7792;DHT22;3940;49.892;10.886;2022-08-11T10:03:42;26.40;60.50
7792;DHT22;3940;49.892;10.886;2022-08-11T10:06:31;26.30;60.40
7792;DHT22;3940;49.892;10.886;2022-08-11T10:09:49;26.60;59.40
7792;DHT22;3940;49.892;10.886;2022-08-11T10:12:39;27.00;60.10
7792;DHT22;3940;49.892;10.886;2022-08-11T10:15:30;26.80;59.20
7792;DHT22;3940;49.892;10.886;2022-08-11T10:18:40;26.60;58.50
7792;DHT22;3940;49.892;10.886;2022-08-11T10:21:40;26.90;58.70
7792;DHT22;3940;49.892;10.886;2022-08-11T10:24:29;27.00;58.30
7792;DHT22;3940;49.892;10.886;2022-08-11T10:27:31;27.10;59.50
7792;DHT22;3940;49.892;10.886;2022-08-11T10:30:16;27.00;58.80
7792;DHT22;3940;49.892;10.886;2022-08-11T10:33:12;27.00;59.20
7792;DHT22;3940;49.892;10.886;2022-08-11T10:36:17;27.10;59.20
7792;DHT22;3940;49.892;10.886;2022-08-11T10:39:04;27.20;59.50
7792;DHT22;3940;49.892;10.886;2022-08-11T10:41:51;27.30;59.80
7792;DHT22;3940;49.892;10.886;2022-08-11T10:44:52;27.20;57.70
7792;DHT22;3940;49.892;10.886;2022-08-11T10:47:40;27.60;57.50
7792;DHT22;3940;49.892;10.886;2022-08-11T10:50:28;27.70;56.70
7792;DHT22;3940;49.892;10.886;2022-08-11T10:53:33;27.20;56.40
7792;DHT22;3940;49.892;10.886;2022-08-11T10:56:35;27.40;54.90
7792;DHT22;3940;49.892;10.886;2022-08-11T10:59:43;27.40;56.70
7792;DHT22;3940;49.892;10.886;2022-08-11T11:02:28;27.40;55.90
7792;DHT22;3940;49.892;10.886;2022-08-11T11:05:24;27.70;56.60
7792;DHT22;3940;49.892;10.886;2022-08-11T11:08:32;27.70;56.20
7792;DHT22;3940;49.892;10.886;2022-08-11T11:11:37;27.80;54.20
7792;DHT22;3940;49.892;10.886;2022-08-11T11:14:35;28.60;55.50
7792;DHT22;3940;49.892;10.886;2022-08-11T11:17:43;28.00;54.30
7792;DHT22;3940;49.892;10.886;2022-08-11T11:20:55;28.30;54.50
7792;DHT22;3940;49.892;10.886;2022-08-11T11:23:55;28.80;53.60
7792;DHT22;3940;49.892;10.886;2022-08-11T11:26:56;28.90;54.20
7792;DHT22;3940;49.892;10.886;2022-08-11T11:33:07;28.40;56.10
7792;DHT22;3940;49.892;10.886;2022-08-11T11:36:12;29.20;53.80
7792;DHT22;3940;49.892;10.886;2022-08-11T11:39:00;29.30;54.30
7792;DHT22;3940;49.892;10.886;2022-08-11T11:41:44;29.10;54.40
7792;DHT22;3940;49.892;10.886;2022-08-11T11:44:29;29.60;52.20
7792;DHT22;3940;49.892;10.886;2022-08-11T11:47:15;29.80;52.00
7792;DHT22;3940;49.892;10.886;2022-08-11T11:50:04;30.50;52.00
7792;DHT22;3940;49.892;10.886;2022-08-11T11:52:51;30.90;50.80
7792;DHT22;3940;49.892;10.886;2022-08-11T11:55:37;31.20;49.60
7792;DHT22;3940;49.892;10.886;2022-08-11T11:58:22;31.00;50.20
7792;DHT22;3940;49.892;10.886;2022-08-11T12:01:21;31.60;48.40
7792;DHT22;3940;49.892;10.886;2022-08-11T12:04:08;30.80;51.20
7792;DHT22;3940;49.892;10.886;2022-08-11T12:06:54;31.60;47.70
7792;DHT22;3940;49.892;10.886;2022-08-11T12:10:00;30.60;48.80
7792;DHT22;3940;49.892;10.886;2022-08-11T12:12:46;30.30;47.90
7792;DHT22;3940;49.892;10.886;2022-08-11T12:15:41;30.20;48.00
7792;DHT22;3940;49.892;10.886;2022-08-11T12:18:25;29.90;48.70
7792;DHT22;3940;49.892;10.886;2022-08-11T12:21:13;30.30;49.50
7792;DHT22;3940;49.892;10.886;2022-08-11T12:24:01;30.90;48.50
7792;DHT22;3940;49.892;10.886;2022-08-11T12:27:00;31.00;46.80
7792;DHT22;3940;49.892;10.886;2022-08-11T12:30:03;30.20;47.10
7792;DHT22;3940;49.892;10.886;2022-08-11T12:32:49;30.10;50.00
7792;DHT22;3940;49.892;10.886;2022-08-11T12:35:35;30.50;50.20
7792;DHT22;3940;49.892;10.886;2022-08-11T12:38:20;32.20;47.30
7792;DHT22;3940;49.892;10.886;2022-08-11T12:41:06;32.50;46.80
7792;DHT22;3940;49.892;10.886;2022-08-11T12:44:01;31.30;47.20
7792;DHT22;3940;49.892;10.886;2022-08-11T12:47:01;31.80;49.80
7792;DHT22;3940;49.892;10.886;2022-08-11T12:49:48;32.90;46.60
7792;DHT22;3940;49.892;10.886;2022-08-11T12:52:52;31.50;45.00
7792;DHT22;3940;49.892;10.886;2022-08-11T12:55:39;31.10;47.30
7792;DHT22;3940;49.892;10.886;2022-08-11T12:58:43;32.20;46.20
7792;DHT22;3940;49.892;10.886;2022-08-11T13:01:29;31.20;45.40
7792;DHT22;3940;49.892;10.886;2022-08-11T13:04:33;30.80;46.40
7792;DHT22;3940;49.892;10.886;2022-08-11T13:07:31;31.20;45.70
7792;DHT22;3940;49.892;10.886;2022-08-11T13:10:18;31.40;45.10
7792;DHT22;3940;49.892;10.886;2022-08-11T13:13:21;30.90;46.20
7792;DHT22;3940;49.892;10.886;2022-08-11T13:16:06;30.40;46.90
7792;DHT22;3940;49.892;10.886;2022-08-11T13:18:51;30.90;47.40
7792;DHT22;3940;49.892;10.886;2022-08-11T13:21:36;31.30;46.10
7792;DHT22;3940;49.892;10.886;2022-08-11T13:24:21;31.50;46.10
7792;DHT22;3940;49.892;10.886;2022-08-11T13:27:06;31.00;46.20
7792;DHT22;3940;49.892;10.886;2022-08-11T13:29:51;30.80;47.70
7792;DHT22;3940;49.892;10.886;2022-08-11T13:32:56;30.30;47.70
7792;DHT22;3940;49.892;10.886;2022-08-11T13:35:41;30.90;47.50
7792;DHT22;3940;49.892;10.886;2022-08-11T13:38:27;30.70;47.50
7792;DHT22;3940;49.892;10.886;2022-08-11T13:41:11;31.30;47.60
7792;DHT22;3940;49.892;10.886;2022-08-11T13:44:17;31.70;46.70
7792;DHT22;3940;49.892;10.886;2022-08-11T13:47:03;33.20;46.80
7792;DHT22;3940;49.892;10.886;2022-08-11T13:49:49;33.90;46.20
7792;DHT22;3940;49.892;10.886;2022-08-11T13:52:36;32.00;44.60
7792;DHT22;3940;49.892;10.886;2022-08-11T13:55:22;32.20;44.60
7792;DHT22;3940;49.892;10.886;2022-08-11T13:58:09;32.50;46.70
7792;DHT22;3940;49.892;10.886;2022-08-11T14:00:54;32.30;46.90
7792;DHT22;3940;49.892;10.886;2022-08-11T14:03:41;32.30;44.90
7792;DHT22;3940;49.892;10.886;2022-08-11T14:06:26;32.00;46.60
7792;DHT22;3940;49.892;10.886;2022-08-11T14:09:13;32.90;44.50
7792;DHT22;3940;49.892;10.886;2022-08-11T14:12:01;33.60;44.10
7792;DHT22;3940;49.892;10.886;2022-08-11T14:15:06;33.80;41.80
7792;DHT22;3940;49.892;10.886;2022-08-11T14:17:56;33.20;40.90
7792;DHT22;3940;49.892;10.886;2022-08-11T14:20:49;33.00;42.70
7792;DHT22;3940;49.892;10.886;2022-08-11T14:23:52;33.10;41.70
7792;DHT22;3940;49.892;10.886;2022-08-11T14:26:40;33.00;40.20
7792;DHT22;3940;49.892;10.886;2022-08-11T14:29:27;33.30;41.90
7792;DHT22;3940;49.892;10.886;2022-08-11T14:32:13;33.00;40.90
7792;DHT22;3940;49.892;10.886;2022-08-11T14:34:57;31.70;45.00
7792;DHT22;3940;49.892;10.886;2022-08-11T14:37:43;31.40;44.80
7792;DHT22;3940;49.892;10.886;2022-08-11T14:40:27;31.20;44.80
7792;DHT22;3940;49.892;10.886;2022-08-11T14:43:31;31.30;44.70
7792;DHT22;3940;49.892;10.886;2022-08-11T14:46:29;32.10;45.60
7792;DHT22;3940;49.892;10.886;2022-08-11T14:49:35;32.00;43.40
7792;DHT22;3940;49.892;10.886;2022-08-11T14:52:20;30.90;43.20
7792;DHT22;3940;49.892;10.886;2022-08-11T14:55:05;31.60;45.40
7792;DHT22;3940;49.892;10.886;2022-08-11T14:58:13;31.90;44.50
7792;DHT22;3940;49.892;10.886;2022-08-11T15:01:00;32.20;42.90
7792;DHT22;3940;49.892;10.886;2022-08-11T15:03:45;32.10;43.10
7792;DHT22;3940;49.892;10.886;2022-08-11T15:06:30;32.30;43.40
7792;DHT22;3940;49.892;10.886;2022-08-11T15:09:16;32.10;43.10
7792;DHT22;3940;49.892;10.886;2022-08-11T15:12:01;31.40;43.40
7792;DHT22;3940;49.892;10.886;2022-08-11T15:14:53;31.20;43.20
7792;DHT22;3940;49.892;10.886;2022-08-11T15:17:53;31.20;43.50
7792;DHT22;3940;49.892;10.886;2022-08-11T15:20:37;30.90;42.70
7792;DHT22;3940;49.892;10.886;2022-08-11T15:23:42;31.20;43.60
7792;DHT22;3940;49.892;10.886;2022-08-11T15:26:41;31.20;43.80
7792;DHT22;3940;49.892;10.886;2022-08-11T15:29:42;31.40;43.60
7792;DHT22;3940;49.892;10.886;2022-08-11T15:32:47;31.70;44.40
7792;DHT22;3940;49.892;10.886;2022-08-11T15:35:52;31.90;43.90
7792;DHT22;3940;49.892;10.886;2022-08-11T15:39:06;32.00;43.20
7792;DHT22;3940;49.892;10.886;2022-08-11T15:42:12;32.00;42.50
7792;DHT22;3940;49.892;10.886;2022-08-11T15:45:15;32.10;44.70
7792;DHT22;3940;49.892;10.886;2022-08-11T15:48:25;32.60;43.90
7792;DHT22;3940;49.892;10.886;2022-08-11T15:51:18;32.70;42.60
7792;DHT22;3940;49.892;10.886;2022-08-11T15:54:09;32.90;44.20
7792;DHT22;3940;49.892;10.886;2022-08-11T15:56:55;31.80;42.00
7792;DHT22;3940;49.892;10.886;2022-08-11T15:59:42;31.10;44.40
7792;DHT22;3940;49.892;10.886;2022-08-11T16:02:42;31.00;44.30
7792;DHT22;3940;49.892;10.886;2022-08-11T16:05:44;31.40;44.00
7792;DHT22;3940;49.892;10.886;2022-08-11T16:08:31;31.00;45.40
7792;DHT22;3940;49.892;10.886;2022-08-11T16:11:18;31.00;45.50
7792;DHT22;3940;49.892;10.886;2022-08-11T16:14:05;31.70;45.20
7792;DHT22;3940;49.892;10.886;2022-08-11T16:17:03;31.60;44.00
7792;DHT22;3940;49.892;10.886;2022-08-11T16:19:51;31.40;43.20
7792;DHT22;3940;49.892;10.886;2022-08-11T16:22:37;31.10;43.40
7792;DHT22;3940;49.892;10.886;2022-08-11T16:25:28;31.00;45.00
7792;DHT22;3940;49.892;10.886;2022-08-11T16:28:13;31.00;45.90
7792;DHT22;3940;49.892;10.886;2022-08-11T16:31:00;31.20;45.80
7792;DHT22;3940;49.892;10.886;2022-08-11T16:33:45;31.40;44.40
7792;DHT22;3940;49.892;10.886;2022-08-11T16:36:30;30.90;46.30
7792;DHT22;3940;49.892;10.886;2022-08-11T16:39:33;31.10;45.30
7792;DHT22;3940;49.892;10.886;2022-08-11T16:42:38;31.70;47.70
7792;DHT22;3940;49.892;10.886;2022-08-11T16:45:40;31.50;46.60
7792;DHT22;3940;49.892;10.886;2022-08-11T16:48:38;31.20;46.40
7792;DHT22;3940;49.892;10.886;2022-08-11T16:51:24;31.00;45.10
7792;DHT22;3940;49.892;10.886;2022-08-11T16:54:09;30.80;47.00
7792;DHT22;3940;49.892;10.886;2022-08-11T16:56:53;30.70;46.70
7792;DHT22;3940;49.892;10.886;2022-08-11T16:59:39;30.60;47.60
7792;DHT22;3940;49.892;10.886;2022-08-11T17:02:25;30.50;46.30
7792;DHT22;3940;49.892;10.886;2022-08-11T17:05:31;30.40;46.30
7792;DHT22;3940;49.892;10.886;2022-08-11T17:08:34;30.50;47.70
7792;DHT22;3940;49.892;10.886;2022-08-11T17:11:31;30.20;47.10
7792;DHT22;3940;49.892;10.886;2022-08-11T17:14:40;30.20;47.40
7792;DHT22;3940;49.892;10.886;2022-08-11T17:17:29;30.30;47.90
7792;DHT22;3940;49.892;10.886;2022-08-11T17:20:15;30.20;47.50
7792;DHT22;3940;49.892;10.886;2022-08-11T17:23:00;30.00;47.00
7792;DHT22;3940;49.892;10.886;2022-08-11T17:26:02;30.40;47.20
7792;DHT22;3940;49.892;10.886;2022-08-11T17:28:51;30.20;46.60
7792;DHT22;3940;49.892;10.886;2022-08-11T17:31:39;30.00;47.70
7792;DHT22;3940;49.892;10.886;2022-08-11T17:34:45;29.80;47.20
7792;DHT22;3940;49.892;10.886;2022-08-11T17:37:51;29.80;47.80
7792;DHT22;3940;49.892;10.886;2022-08-11T17:40:38;29.70;48.80
7792;DHT22;3940;49.892;10.886;2022-08-11T17:43:23;29.60;49.00
7792;DHT22;3940;49.892;10.886;2022-08-11T17:46:22;29.50;49.40
7792;DHT22;3940;49.892;10.886;2022-08-11T17:49:24;29.60;48.20
7792;DHT22;3940;49.892;10.886;2022-08-11T17:52:10;29.60;48.10
7792;DHT22;3940;49.892;10.886;2022-08-11T17:55:14;29.40;48.30
7792;DHT22;3940;49.892;10.886;2022-08-11T17:58:13;29.30;48.80
7792;DHT22;3940;49.892;10.886;2022-08-11T18:01:12;29.20;48.70
7792;DHT22;3940;49.892;10.886;2022-08-11T18:03:57;29.10;50.90
7792;DHT22;3940;49.892;10.886;2022-08-11T18:06:43;28.90;49.40
7792;DHT22;3940;49.892;10.886;2022-08-11T18:09:29;28.80;49.10
7792;DHT22;3940;49.892;10.886;2022-08-11T18:12:33;28.60;50.20
7792;DHT22;3940;49.892;10.886;2022-08-11T18:15:33;28.60;49.10
7792;DHT22;3940;49.892;10.886;2022-08-11T18:18:33;28.50;52.10
7792;DHT22;3940;49.892;10.886;2022-08-11T18:21:35;28.30;50.50
7792;DHT22;3940;49.892;10.886;2022-08-11T18:24:37;28.40;50.10
7792;DHT22;3940;49.892;10.886;2022-08-11T18:27:35;28.30;50.80
7792;DHT22;3940;49.892;10.886;2022-08-11T18:30:36;28.20;50.60
7792;DHT22;3940;49.892;10.886;2022-08-11T18:33:52;28.20;51.90
7792;DHT22;3940;49.892;10.886;2022-08-11T18:37:03;28.10;51.40
7792;DHT22;3940;49.892;10.886;2022-08-11T18:40:09;27.90;55.00
7792;DHT22;3940;49.892;10.886;2022-08-11T18:43:08;27.80;53.90
7792;DHT22;3940;49.892;10.886;2022-08-11T18:46:06;27.80;53.90
7792;DHT22;3940;49.892;10.886;2022-08-11T18:49:11;27.80;54.40
7792;DHT22;3940;49.892;10.886;2022-08-11T18:52:16;27.80;55.50
7792;DHT22;3940;49.892;10.886;2022-08-11T18:55:16;27.60;56.30
7792;DHT22;3940;49.892;10.886;2022-08-11T18:58:18;27.50;57.00
7792;DHT22;3940;49.892;10.886;2022-08-11T19:01:24;27.50;58.70
7792;DHT22;3940;49.892;10.886;2022-08-11T19:04:27;27.30;60.20
7792;DHT22;3940;49.892;10.886;2022-08-11T19:07:30;27.10;66.20
7792;DHT22;3940;49.892;10.886;2022-08-11T19:10:34;26.80;66.40
7792;DHT22;3940;49.892;10.886;2022-08-11T19:13:35;27.00;60.80
7792;DHT22;3940;49.892;10.886;2022-08-11T19:16:37;27.20;57.30
7792;DHT22;3940;49.892;10.886;2022-08-11T19:19:38;27.10;62.00
7792;DHT22;3940;49.892;10.886;2022-08-11T19:22:37;27.10;58.10
7792;DHT22;3940;49.892;10.886;2022-08-11T19:25:35;27.20;57.60
7792;DHT22;3940;49.892;10.886;2022-08-11T19:28:56;27.10;57.90
7792;DHT22;3940;49.892;10.886;2022-08-11T19:31:59;27.10;57.80
7792;DHT22;3940;49.892;10.886;2022-08-11T19:34:55;27.00;58.50
7792;DHT22;3940;49.892;10.886;2022-08-11T19:37:57;26.80;56.50
7792;DHT22;3940;49.892;10.886;2022-08-11T19:40:58;26.60;61.10
7792;DHT22;3940;49.892;10.886;2022-08-11T19:44:01;26.60;58.80
7792;DHT22;3940;49.892;10.886;2022-08-11T19:46:59;26.50;57.30
7792;DHT22;3940;49.892;10.886;2022-08-11T19:49:59;26.30;57.70
7792;DHT22;3940;49.892;10.886;2022-08-11T19:53:01;26.30;58.80
7792;DHT22;3940;49.892;10.886;2022-08-11T19:56:00;26.40;58.30
7792;DHT22;3940;49.892;10.886;2022-08-11T19:58:57;26.30;60.00
7792;DHT22;3940;49.892;10.886;2022-08-11T20:01:56;26.50;57.80
7792;DHT22;3940;49.892;10.886;2022-08-11T20:05:00;26.50;57.60
7792;DHT22;3940;49.892;10.886;2022-08-11T20:08:00;26.50;57.30
7792;DHT22;3940;49.892;10.886;2022-08-11T20:11:00;26.50;58.50
7792;DHT22;3940;49.892;10.886;2022-08-11T20:14:01;26.50;56.80
7792;DHT22;3940;49.892;10.886;2022-08-11T20:17:01;26.50;58.30
7792;DHT22;3940;49.892;10.886;2022-08-11T20:19:59;26.40;57.90
7792;DHT22;3940;49.892;10.886;2022-08-11T20:23:01;26.40;59.30
7792;DHT22;3940;49.892;10.886;2022-08-11T20:26:02;26.20;61.20